createdAt,value
2019-02-23T00:00:40.425Z,1011.42
2019-02-23T00:01:40.929Z,1011.40
2019-02-23T00:02:40.929Z,1011.48
2019-02-23T00:03:43.932Z,1011.46
2019-02-23T00:04:40.389Z,1011.49
2019-02-23T00:05:41.428Z,1011.43
2019-02-23T00:06:41.429Z,1011.40
2019-02-23T00:07:41.428Z,1011.35
2019-02-23T00:08:45.429Z,1011.25
2019-02-23T00:09:41.431Z,1011.27
2019-02-23T00:10:41.929Z,1011.28
2019-02-23T00:11:41.932Z,1011.27
2019-02-23T00:12:41.928Z,1011.27
2019-02-23T00:13:45.428Z,1011.33
2019-02-23T00:14:44.428Z,1011.33
2019-02-23T00:15:44.428Z,1011.40
2019-02-23T00:16:42.430Z,1011.45
2019-02-23T00:17:42.427Z,1011.49
2019-02-23T00:18:46.427Z,1011.47
2019-02-23T00:19:42.928Z,1011.47
2019-02-23T00:20:42.925Z,1011.42
2019-02-23T00:21:42.927Z,1011.40
2019-02-23T00:22:43.427Z,1011.38
2019-02-23T00:23:43.427Z,1011.35
2019-02-23T00:24:46.428Z,1011.40
2019-02-23T00:25:43.428Z,1011.49
2019-02-23T00:26:43.927Z,1011.50
2019-02-23T00:27:43.929Z,1011.52
2019-02-23T00:28:43.926Z,1011.50
2019-02-23T00:29:49.926Z,1011.48
2019-02-23T00:30:46.432Z,1011.49
2019-02-23T00:31:44.435Z,1011.53
2019-02-23T00:32:44.424Z,1011.55
2019-02-23T00:33:44.426Z,1011.52
2019-02-23T00:34:44.933Z,1011.57
2019-02-23T00:35:48.930Z,1011.51
2019-02-23T00:36:44.926Z,1011.57
2019-02-23T00:37:44.926Z,1011.56
2019-02-23T00:38:45.426Z,1011.54
2019-02-23T00:39:45.426Z,1011.52
2019-02-23T00:40:45.425Z,1011.50
2019-02-23T00:41:48.925Z,1011.47
2019-02-23T00:42:45.926Z,1011.43
2019-02-23T00:43:45.927Z,1011.38
2019-02-23T00:44:45.925Z,1011.39
2019-02-23T00:45:45.927Z,1011.41
2019-02-23T00:46:49.928Z,1011.41
2019-02-23T00:47:46.425Z,1011.40
2019-02-23T00:48:46.425Z,1011.46
2019-02-23T00:49:46.430Z,1011.46
2019-02-23T00:50:46.927Z,1011.44
2019-02-23T00:51:46.933Z,1011.50
2019-02-23T00:52:50.932Z,1011.55
2019-02-23T00:53:46.924Z,1011.54
2019-02-23T00:54:47.424Z,1011.58
2019-02-23T00:55:47.431Z,1011.55
2019-02-23T00:56:47.424Z,1011.53
2019-02-23T00:57:47.424Z,1011.50
2019-02-23T00:58:50.933Z,1011.50
2019-02-23T00:59:47.924Z,1011.49
2019-02-23T01:00:47.925Z,1011.49
2019-02-23T01:02:08.926Z,1011.48
2019-02-23T01:02:48.423Z,1011.46
2019-02-23T01:03:51.931Z,1011.50
2019-02-23T01:04:48.424Z,1011.51
2019-02-23T01:05:48.450Z,1011.55
2019-02-23T01:06:48.923Z,1011.49
2019-02-23T01:07:48.923Z,1011.54
2019-02-23T01:08:48.921Z,1011.57
2019-02-23T01:09:52.923Z,1011.55
2019-02-23T01:10:57.819Z,1011.59
2019-02-23T01:11:49.431Z,1011.60
2019-02-23T01:12:49.425Z,1011.61
2019-02-23T01:13:49.423Z,1011.57
2019-02-23T01:15:20.422Z,1011.58
2019-02-23T01:15:51.356Z,1011.59
2019-02-23T01:17:10.929Z,1011.51
2019-02-23T01:17:49.922Z,1011.54
2019-02-23T01:19:12.376Z,1011.54
2019-02-23T01:19:50.430Z,1011.57
2019-02-23T01:20:54.422Z,1011.61
2019-02-23T01:21:50.419Z,1011.69
2019-02-23T01:23:10.873Z,1011.67
2019-02-23T01:23:50.923Z,1011.69
2019-02-23T01:24:50.921Z,1011.67
2019-02-23T01:25:51.856Z,1011.64
2019-02-23T01:26:53.921Z,1011.64
2019-02-23T01:27:50.924Z,1011.54
2019-02-23T01:28:51.421Z,1011.58
2019-02-23T01:29:51.420Z,1011.53
2019-02-23T01:30:51.420Z,1011.54
2019-02-23T01:32:16.421Z,1011.49
2019-02-23T01:32:51.921Z,1011.44
2019-02-23T01:33:51.920Z,1011.47
2019-02-23T01:34:51.924Z,1011.44
2019-02-23T01:35:51.920Z,1011.39
2019-02-23T01:36:55.420Z,1011.34
2019-02-23T01:37:52.419Z,1011.33
2019-02-23T01:38:52.423Z,1011.36
2019-02-23T01:39:52.420Z,1011.36
2019-02-23T01:40:52.919Z,1011.30
2019-02-23T01:42:17.418Z,1011.31
2019-02-23T01:42:52.924Z,1011.29
2019-02-23T01:43:52.919Z,1011.29
2019-02-23T01:44:53.421Z,1011.31
2019-02-23T01:46:14.421Z,1011.36
2019-02-23T01:46:53.427Z,1011.38
2019-02-23T01:47:57.429Z,1011.37
2019-02-23T01:48:53.919Z,1011.39
2019-02-23T01:50:14.921Z,1011.41
2019-02-23T01:50:53.918Z,1011.41
2019-02-23T01:51:53.919Z,1011.42
2019-02-23T01:52:54.921Z,1011.43
2019-02-23T01:53:57.421Z,1011.48
2019-02-23T01:54:54.417Z,1011.51
2019-02-23T01:55:54.419Z,1011.48
2019-02-23T01:57:15.926Z,1011.51
2019-02-23T01:57:54.918Z,1011.53
2019-02-23T01:59:20.918Z,1011.56
2019-02-23T01:59:54.917Z,1011.54
2019-02-23T02:00:55.439Z,1011.53
2019-02-23T02:01:55.417Z,1011.54
2019-02-23T02:02:55.423Z,1011.54
2019-02-23T02:03:56.851Z,1011.50
2019-02-23T02:04:59.920Z,1011.45
2019-02-23T02:05:55.918Z,1011.46
2019-02-23T02:06:55.925Z,1011.48
2019-02-23T02:07:55.917Z,1011.47
2019-02-23T02:08:56.416Z,1011.47
2019-02-23T02:09:56.422Z,1011.47
2019-02-23T02:10:59.917Z,1011.50
2019-02-23T02:13:28.013Z,1011.56
2019-02-23T02:14:28.025Z,1011.53
2019-02-23T02:15:30.022Z,1011.51
2019-02-23T02:16:53.518Z,1011.50
2019-02-23T02:17:28.522Z,1011.51
2019-02-23T02:18:28.519Z,1011.47
2019-02-23T02:19:28.518Z,1011.48
2019-02-23T02:20:29.031Z,1011.44
2019-02-23T02:21:32.520Z,1011.47
2019-02-23T02:22:29.018Z,1011.46
2019-02-23T02:23:29.018Z,1011.47
2019-02-23T02:24:29.518Z,1011.48
2019-02-23T02:27:03.863Z,1011.53
2019-02-23T02:28:00.869Z,1011.52
2019-02-23T02:29:00.869Z,1011.47
2019-02-23T02:30:02.331Z,1011.42
2019-02-23T02:31:02.323Z,1011.38
2019-02-23T02:33:37.150Z,1011.26
2019-02-23T02:34:37.156Z,1011.27
2019-02-23T02:35:37.152Z,1011.23
2019-02-23T02:36:58.660Z,1011.16
2019-02-23T02:37:40.658Z,1011.08
2019-02-23T02:38:37.664Z,1011.00
2019-02-23T02:39:37.652Z,1010.91
2019-02-23T02:40:59.153Z,1010.89
2019-02-23T02:41:38.153Z,1010.82
2019-02-23T02:42:42.157Z,1010.86
2019-02-23T02:43:38.159Z,1010.92
2019-02-23T02:44:59.652Z,1010.90
2019-02-23T02:45:38.651Z,1010.96
2019-02-23T02:46:38.653Z,1010.93
2019-02-23T02:47:38.656Z,1010.90
2019-02-23T02:49:04.160Z,1010.85
2019-02-23T02:49:39.155Z,1010.95
2019-02-23T02:50:39.151Z,1010.95
2019-02-23T02:51:39.150Z,1010.99
2019-02-23T02:53:00.664Z,1011.02
2019-02-23T02:53:39.651Z,1011.05
2019-02-23T02:54:43.165Z,1011.06
2019-02-23T02:55:39.648Z,1011.02
2019-02-23T02:58:11.382Z,1010.78
2019-02-23T02:59:11.393Z,1010.73
2019-02-23T03:00:15.390Z,1010.78
2019-02-23T03:01:11.886Z,1010.78
2019-02-23T03:02:11.886Z,1010.79
2019-02-23T03:03:11.904Z,1010.77
2019-02-23T03:04:11.885Z,1010.83
2019-02-23T03:05:36.891Z,1010.83
2019-02-23T03:06:12.388Z,1010.87
2019-02-23T03:07:33.386Z,1010.87
2019-02-23T03:08:12.385Z,1010.87
2019-02-23T03:09:12.897Z,1010.86
2019-02-23T03:10:12.885Z,1010.85
2019-02-23T03:11:38.855Z,1010.80
2019-02-23T03:12:12.885Z,1010.79
2019-02-23T03:13:13.393Z,1010.77
2019-02-23T03:14:13.407Z,1010.72
2019-02-23T03:15:34.397Z,1010.69
2019-02-23T03:16:13.384Z,1010.68
2019-02-23T03:17:17.884Z,1010.71
2019-02-23T03:18:13.888Z,1010.75
2019-02-23T03:19:13.886Z,1010.75
2019-02-23T03:20:13.884Z,1010.72
2019-02-23T03:21:14.416Z,1010.72
2019-02-23T03:22:39.390Z,1010.67
2019-02-23T03:23:14.391Z,1010.65
2019-02-23T03:24:35.388Z,1010.71
2019-02-23T03:26:46.114Z,1010.64
2019-02-23T03:28:10.622Z,1010.59
2019-02-23T03:28:46.119Z,1010.63
2019-02-23T03:29:46.625Z,1010.67
2019-02-23T03:30:46.653Z,1010.67
2019-02-23T03:31:46.628Z,1010.68
2019-02-23T03:32:52.055Z,1010.68
2019-02-23T03:34:08.129Z,1010.63
2019-02-23T03:34:47.118Z,1010.62
2019-02-23T03:36:08.118Z,1010.60
2019-02-23T03:36:47.123Z,1010.65
2019-02-23T03:38:18.118Z,1010.64
2019-02-23T03:38:47.621Z,1010.65
2019-02-23T03:39:47.618Z,1010.61
2019-02-23T03:40:47.622Z,1010.56
2019-02-23T03:42:10.061Z,1010.51
2019-02-23T03:42:48.117Z,1010.46
2019-02-23T03:43:51.619Z,1010.47
2019-02-23T03:44:48.128Z,1010.50
2019-02-23T03:46:09.127Z,1010.55
2019-02-23T03:46:48.616Z,1010.53
2019-02-23T03:47:48.616Z,1010.49
2019-02-23T03:48:48.616Z,1010.46
2019-02-23T03:49:52.616Z,1010.46
2019-02-23T03:50:49.677Z,1010.38
2019-02-23T03:51:49.116Z,1010.39
2019-02-23T03:52:49.117Z,1010.43
2019-02-23T03:53:49.116Z,1010.48
2019-02-23T03:54:49.617Z,1010.54
2019-02-23T03:55:52.618Z,1010.50
2019-02-23T03:56:49.617Z,1010.54
2019-02-23T03:57:49.615Z,1010.52
2019-02-23T03:58:50.113Z,1010.54
2019-02-23T03:59:50.114Z,1010.54
2019-02-23T04:00:54.118Z,1010.56
2019-02-23T04:01:50.116Z,1010.55
2019-02-23T04:03:11.615Z,1010.61
2019-02-23T04:03:50.617Z,1010.55
2019-02-23T04:05:11.669Z,1010.54
2019-02-23T04:05:50.616Z,1010.54
2019-02-23T04:06:55.128Z,1010.48
2019-02-23T04:08:12.115Z,1010.53
2019-02-23T04:08:57.113Z,1010.50
2019-02-23T04:09:51.116Z,1010.47
2019-02-23T04:10:51.120Z,1010.46
2019-02-23T04:11:51.616Z,1010.40
2019-02-23T04:12:56.113Z,1010.37
2019-02-23T04:13:51.613Z,1010.37
2019-02-23T04:14:51.617Z,1010.38
2019-02-23T04:17:23.336Z,1010.45
2019-02-23T04:18:26.350Z,1010.44
2019-02-23T04:19:23.342Z,1010.44
2019-02-23T04:20:25.778Z,1010.41
2019-02-23T04:21:23.843Z,1010.43
2019-02-23T04:22:23.842Z,1010.44
2019-02-23T04:23:48.343Z,1010.42
2019-02-23T04:24:24.361Z,1010.39
2019-02-23T04:25:24.344Z,1010.40
2019-02-23T04:26:24.345Z,1010.37
2019-02-23T04:27:24.438Z,1010.40
2019-02-23T04:28:24.845Z,1010.41
2019-02-23T04:29:49.341Z,1010.40
2019-02-23T04:30:24.841Z,1010.44
2019-02-23T04:31:24.850Z,1010.41
2019-02-23T04:32:26.797Z,1010.40
2019-02-23T04:33:25.345Z,1010.45
2019-02-23T04:34:25.348Z,1010.52
2019-02-23T04:35:29.778Z,1010.51
2019-02-23T04:36:25.342Z,1010.51
2019-02-23T04:38:57.060Z,1010.51
2019-02-23T04:39:57.066Z,1010.47
2019-02-23T04:41:01.063Z,1010.48
2019-02-23T04:43:49.785Z,1010.48
2019-02-23T04:44:28.791Z,1010.54
2019-02-23T04:45:49.792Z,1010.57
2019-02-23T04:46:32.800Z,1010.60
2019-02-23T04:47:29.293Z,1010.62
2019-02-23T04:48:29.290Z,1010.59
2019-02-23T04:49:29.290Z,1010.58
2019-02-23T04:52:04.515Z,1010.58
2019-02-23T04:53:01.015Z,1010.62
2019-02-23T04:54:01.521Z,1010.64
2019-02-23T04:55:02.950Z,1010.66
2019-02-23T04:56:01.522Z,1010.64
2019-02-23T04:57:04.516Z,1010.71
2019-02-23T04:58:02.015Z,1010.76
2019-02-23T04:59:04.017Z,1010.68
2019-02-23T05:00:23.016Z,1010.70
2019-02-23T05:01:23.018Z,1010.72
2019-02-23T05:02:04.865Z,1010.72
2019-02-23T05:03:02.515Z,1010.72
2019-02-23T05:05:33.985Z,1010.75
2019-02-23T05:06:33.993Z,1010.75
2019-02-23T05:07:37.990Z,1010.79
2019-02-23T05:08:55.489Z,1010.75
2019-02-23T05:09:34.497Z,1010.79
2019-02-23T05:10:34.489Z,1010.86
2019-02-23T05:11:34.489Z,1010.87
2019-02-23T05:12:37.003Z,1010.91
2019-02-23T05:13:37.988Z,1010.89
2019-02-23T05:14:36.489Z,1010.85
2019-02-23T05:15:34.996Z,1010.86
2019-02-23T05:16:37.489Z,1010.90
2019-02-23T05:17:35.490Z,1010.97
2019-02-23T05:18:39.489Z,1010.97
2019-02-23T05:19:35.492Z,1010.94
2019-02-23T05:23:42.627Z,1010.84
2019-02-23T05:24:38.622Z,1010.87
2019-02-23T05:25:38.624Z,1010.83
2019-02-23T05:26:39.147Z,1010.79
2019-02-23T05:27:39.134Z,1010.77
2019-02-23T05:28:39.130Z,1010.76
2019-02-23T05:29:42.629Z,1010.74
2019-02-23T05:32:10.851Z,1010.80
2019-02-23T05:33:10.857Z,1010.81
2019-02-23T05:34:10.857Z,1010.78
2019-02-23T05:35:15.361Z,1010.75
2019-02-23T05:36:11.366Z,1010.72
2019-02-23T05:37:11.358Z,1010.69
2019-02-23T05:38:11.363Z,1010.68
2019-02-23T05:39:11.855Z,1010.71
2019-02-23T05:40:11.857Z,1010.66
2019-02-23T05:41:15.355Z,1010.66
2019-02-23T05:42:11.855Z,1010.65
2019-02-23T05:43:12.355Z,1010.69
2019-02-23T05:44:12.359Z,1010.69
2019-02-23T05:45:12.355Z,1010.70
2019-02-23T05:46:16.356Z,1010.75
2019-02-23T05:47:33.924Z,1010.80
2019-02-23T05:49:44.203Z,1010.84
2019-02-23T05:50:44.212Z,1010.85
2019-02-23T05:51:47.710Z,1010.87
2019-02-23T05:52:44.711Z,1010.90
2019-02-23T05:53:44.710Z,1010.95
2019-02-23T05:54:44.710Z,1010.98
2019-02-23T05:56:05.711Z,1011.05
2019-02-23T05:57:10.215Z,1011.07
2019-02-23T05:57:45.213Z,1011.11
2019-02-23T05:58:45.212Z,1011.09
2019-02-23T05:59:47.210Z,1011.07
2019-02-23T06:00:45.715Z,1011.09
2019-02-23T06:01:45.709Z,1011.13
2019-02-23T06:02:49.221Z,1011.15
2019-02-23T06:03:45.707Z,1011.15
2019-02-23T06:06:17.433Z,1011.20
2019-02-23T06:07:17.440Z,1011.25
2019-02-23T06:08:21.439Z,1011.27
2019-02-23T06:10:49.149Z,1011.24
2019-02-23T06:11:51.162Z,1011.29
2019-02-23T06:12:49.156Z,1011.31
2019-02-23T06:13:54.089Z,1011.31
2019-02-23T06:14:49.657Z,1011.35
2019-02-23T06:15:49.656Z,1011.40
2019-02-23T06:16:49.658Z,1011.38
2019-02-23T06:17:50.156Z,1011.44
2019-02-23T06:18:50.156Z,1011.44
2019-02-23T06:20:15.158Z,1011.42
2019-02-23T06:20:50.160Z,1011.47
2019-02-23T06:21:54.134Z,1011.51
2019-02-23T06:22:50.654Z,1011.48
2019-02-23T06:23:50.653Z,1011.51
2019-02-23T06:24:50.654Z,1011.51
2019-02-23T06:25:54.155Z,1011.55
2019-02-23T06:26:51.156Z,1011.52
2019-02-23T06:27:51.158Z,1011.56
2019-02-23T06:28:51.154Z,1011.48
2019-02-23T06:29:51.664Z,1011.51
2019-02-23T06:30:55.153Z,1011.55
2019-02-23T06:31:51.652Z,1011.56
2019-02-23T06:32:51.652Z,1011.64
2019-02-23T06:33:52.152Z,1011.62
2019-02-23T06:34:52.152Z,1011.69
2019-02-23T06:35:52.152Z,1011.69
2019-02-23T06:36:56.154Z,1011.67
2019-02-23T06:37:53.449Z,1011.64
2019-02-23T06:38:52.652Z,1011.68
2019-02-23T06:39:54.127Z,1011.65
2019-02-23T06:40:52.660Z,1011.67
2019-02-23T06:41:52.688Z,1011.65
2019-02-23T06:42:57.909Z,1011.69
2019-02-23T06:43:54.606Z,1011.74
2019-02-23T06:44:53.151Z,1011.77
2019-02-23T06:45:53.151Z,1011.83
2019-02-23T06:46:53.151Z,1011.81
2019-02-23T06:49:28.877Z,1011.75
2019-02-23T06:50:30.882Z,1011.79
2019-02-23T06:51:28.884Z,1011.77
2019-02-23T06:52:29.385Z,1011.80
2019-02-23T06:53:32.890Z,1011.77
2019-02-23T06:54:29.382Z,1011.80
2019-02-23T06:55:29.382Z,1011.82
2019-02-23T06:56:29.890Z,1011.87
2019-02-23T06:57:29.882Z,1011.81
2019-02-23T06:58:29.886Z,1011.82
2019-02-23T06:59:33.896Z,1011.72
2019-02-23T07:00:30.385Z,1011.73
2019-02-23T07:01:30.382Z,1011.70
2019-02-23T07:02:30.388Z,1011.71
2019-02-23T07:03:30.382Z,1011.74
2019-02-23T07:04:30.881Z,1011.79
2019-02-23T07:05:33.890Z,1011.78
2019-02-23T07:06:30.881Z,1011.78
2019-02-23T07:07:30.883Z,1011.78
2019-02-23T07:08:31.381Z,1011.81
2019-02-23T07:09:52.381Z,1011.83
2019-02-23T07:10:35.384Z,1011.80
2019-02-23T07:11:31.381Z,1011.80
2019-02-23T07:12:31.877Z,1011.82
2019-02-23T07:13:52.889Z,1011.81
2019-02-23T07:14:31.882Z,1011.80
2019-02-23T07:15:31.890Z,1011.79
2019-02-23T07:16:36.379Z,1011.83
2019-02-23T07:17:32.378Z,1011.83
2019-02-23T07:18:32.390Z,1011.85
2019-02-23T07:19:32.381Z,1011.90
2019-02-23T07:20:55.322Z,1011.90
2019-02-23T07:22:14.798Z,1011.92
2019-02-23T07:22:33.715Z,1011.89
2019-02-23T07:23:32.878Z,1011.97
2019-02-23T07:24:32.882Z,1011.98
2019-02-23T07:25:54.376Z,1011.99
2019-02-23T07:26:56.378Z,1012.00
2019-02-23T07:27:37.379Z,1011.98
2019-02-23T07:28:33.378Z,1011.92
2019-02-23T07:29:54.878Z,1011.91
2019-02-23T07:30:54.881Z,1011.84
2019-02-23T07:31:35.312Z,1011.88
2019-02-23T07:32:37.377Z,1011.87
2019-02-23T07:35:05.597Z,1011.92
2019-02-23T07:36:05.605Z,1011.94
2019-02-23T07:37:05.606Z,1011.95
2019-02-23T07:38:09.105Z,1011.95
2019-02-23T07:39:06.104Z,1011.92
2019-02-23T07:40:06.104Z,1011.96
2019-02-23T07:41:06.141Z,1011.96
2019-02-23T07:42:06.619Z,1012.05
2019-02-23T07:43:10.104Z,1012.01
2019-02-23T07:44:27.606Z,1012.03
2019-02-23T07:45:06.660Z,1012.02
2019-02-23T07:47:38.347Z,1011.98
2019-02-23T07:48:41.851Z,1011.98
2019-02-23T07:49:38.351Z,1012.00
2019-02-23T07:50:38.853Z,1012.02
2019-02-23T07:51:38.852Z,1012.01
2019-02-23T07:52:59.850Z,1011.98
2019-02-23T07:53:42.851Z,1011.98
2019-02-23T07:54:39.351Z,1012.02
2019-02-23T07:55:41.355Z,1011.96
2019-02-23T07:56:39.352Z,1012.00
2019-02-23T07:57:39.356Z,1012.01
2019-02-23T07:58:39.850Z,1012.02
2019-02-23T07:59:42.850Z,1012.07
2019-02-23T08:00:39.853Z,1012.00
2019-02-23T08:01:39.850Z,1012.01
2019-02-23T08:02:40.350Z,1012.02
2019-02-23T08:03:40.351Z,1012.02
2019-02-23T08:05:05.349Z,1012.03
2019-02-23T08:05:40.351Z,1012.03
2019-02-23T08:06:40.854Z,1012.05
2019-02-23T08:07:40.850Z,1012.05
2019-02-23T08:08:40.849Z,1012.01
2019-02-23T08:09:40.849Z,1012.06
2019-02-23T08:10:45.351Z,1012.06
2019-02-23T08:11:41.349Z,1012.02
2019-02-23T08:12:41.348Z,1012.04
2019-02-23T08:13:41.353Z,1012.02
2019-02-23T08:14:41.849Z,1012.06
2019-02-23T08:15:41.848Z,1012.10
2019-02-23T08:16:45.354Z,1012.07
2019-02-23T08:17:41.856Z,1012.06
2019-02-23T08:19:05.348Z,1011.99
2019-02-23T08:19:42.349Z,1011.99
2019-02-23T08:20:42.349Z,1011.95
2019-02-23T08:21:46.357Z,1011.98
2019-02-23T08:22:42.846Z,1012.06
2019-02-23T08:23:42.854Z,1012.03
2019-02-23T08:24:42.853Z,1012.06
2019-02-23T08:25:42.847Z,1012.09
2019-02-23T08:26:43.347Z,1012.13
2019-02-23T08:27:47.348Z,1012.14
2019-02-23T08:29:04.349Z,1012.19
2019-02-23T08:29:43.347Z,1012.13
2019-02-23T08:30:43.846Z,1012.14
2019-02-23T08:31:43.847Z,1012.14
2019-02-23T08:32:43.849Z,1012.19
2019-02-23T08:33:47.346Z,1012.19
2019-02-23T08:34:44.346Z,1012.26
2019-02-23T08:35:44.346Z,1012.24
2019-02-23T08:36:44.346Z,1012.22
2019-02-23T08:37:44.346Z,1012.23
2019-02-23T08:38:47.357Z,1012.22
2019-02-23T08:39:44.868Z,1012.28
2019-02-23T08:40:44.849Z,1012.27
2019-02-23T08:41:44.848Z,1012.25
2019-02-23T08:42:45.345Z,1012.22
2019-02-23T08:43:48.864Z,1012.14
2019-02-23T08:44:45.357Z,1012.09
2019-02-23T08:45:45.345Z,1012.03
2019-02-23T08:46:45.845Z,1012.02
2019-02-23T08:48:06.846Z,1012.01
2019-02-23T08:48:49.845Z,1012.00
2019-02-23T08:49:45.845Z,1012.04
2019-02-23T08:50:46.345Z,1012.10
2019-02-23T08:51:46.344Z,1012.10
2019-02-23T08:52:49.981Z,1012.09
2019-02-23T08:53:46.344Z,1012.10
2019-02-23T08:54:49.845Z,1012.06
2019-02-23T08:55:47.169Z,1012.08
2019-02-23T08:56:47.081Z,1012.05
2019-02-23T08:57:47.099Z,1012.03
2019-02-23T08:58:47.349Z,1012.05
2019-02-23T08:59:50.844Z,1012.05
2019-02-23T09:00:47.346Z,1011.99
2019-02-23T09:01:47.343Z,1011.99
2019-02-23T09:02:47.843Z,1011.95
2019-02-23T09:03:49.730Z,1012.01
2019-02-23T09:04:47.853Z,1011.99
2019-02-23T09:05:51.850Z,1011.98
2019-02-23T09:06:48.345Z,1011.93
2019-02-23T09:07:48.343Z,1011.85
2019-02-23T09:08:48.343Z,1011.80
2019-02-23T09:09:48.341Z,1011.78
2019-02-23T09:10:48.859Z,1011.81
2019-02-23T09:11:51.838Z,1011.80
2019-02-23T09:12:48.843Z,1011.90
2019-02-23T09:13:48.920Z,1011.90
2019-02-23T09:14:49.342Z,1011.87
2019-02-23T09:16:10.342Z,1011.80
2019-02-23T09:16:53.343Z,1011.75
2019-02-23T09:17:49.342Z,1011.76
2019-02-23T09:18:49.342Z,1011.81
2019-02-23T09:19:49.839Z,1011.78
2019-02-23T09:20:51.843Z,1011.81
2019-02-23T09:22:14.344Z,1011.79
2019-02-23T09:22:59.802Z,1011.75
2019-02-23T09:23:51.287Z,1011.77
2019-02-23T09:25:11.341Z,1011.74
2019-02-23T09:27:24.695Z,1011.60
2019-02-23T09:28:21.704Z,1011.61
2019-02-23T09:29:21.709Z,1011.51
2019-02-23T09:30:22.201Z,1011.54
2019-02-23T09:31:24.209Z,1011.52
2019-02-23T09:32:26.200Z,1011.53
2019-02-23T09:33:22.197Z,1011.51
2019-02-23T09:34:22.707Z,1011.49
2019-02-23T09:35:22.709Z,1011.51
2019-02-23T09:36:22.700Z,1011.48
2019-02-23T09:37:22.701Z,1011.55
2019-02-23T09:38:27.206Z,1011.57
2019-02-23T09:39:23.205Z,1011.61
2019-02-23T09:40:23.214Z,1011.60
2019-02-23T09:41:23.199Z,1011.67
2019-02-23T09:42:46.699Z,1011.64
2019-02-23T09:43:23.699Z,1011.63
2019-02-23T09:44:27.250Z,1011.60
2019-02-23T09:45:23.706Z,1011.51
2019-02-23T09:46:24.202Z,1011.50
2019-02-23T09:47:45.203Z,1011.45
2019-02-23T09:48:24.201Z,1011.42
2019-02-23T09:49:28.201Z,1011.46
2019-02-23T09:50:24.699Z,1011.47
2019-02-23T09:51:45.731Z,1011.50
2019-02-23T09:52:24.699Z,1011.45
2019-02-23T09:53:24.699Z,1011.50
2019-02-23T09:54:27.200Z,1011.51
2019-02-23T09:57:00.514Z,1011.52
2019-02-23T09:58:00.521Z,1011.58
2019-02-23T09:59:21.523Z,1011.61
2019-02-23T10:00:01.020Z,1011.66
2019-02-23T10:01:04.529Z,1011.70
2019-02-23T10:03:31.794Z,1011.78
2019-02-23T10:04:32.511Z,1011.82
2019-02-23T10:05:32.516Z,1011.86
2019-02-23T10:06:36.517Z,1011.83
2019-02-23T10:07:33.009Z,1011.79
2019-02-23T10:08:33.011Z,1011.76
2019-02-23T10:09:33.009Z,1011.75
2019-02-23T10:10:33.511Z,1011.71
2019-02-23T10:11:37.513Z,1011.69
2019-02-23T10:12:33.507Z,1011.77
2019-02-23T10:13:33.510Z,1011.83
2019-02-23T10:14:34.014Z,1011.77
2019-02-23T10:15:34.009Z,1011.80
2019-02-23T10:16:34.008Z,1011.77
2019-02-23T10:19:10.376Z,1011.71
2019-02-23T10:20:10.351Z,1011.70
2019-02-23T10:21:09.876Z,1011.77
2019-02-23T10:22:30.422Z,1011.78
2019-02-23T10:23:21.492Z,1011.83
2019-02-23T10:24:08.668Z,1011.85
2019-02-23T10:25:09.418Z,1011.81
2019-02-23T10:26:09.420Z,1011.77
2019-02-23T10:27:09.928Z,1011.76
2019-02-23T10:28:34.425Z,1011.76
2019-02-23T10:29:09.917Z,1011.79
2019-02-23T10:30:09.917Z,1011.78
2019-02-23T10:31:10.420Z,1011.77
2019-02-23T10:32:31.418Z,1011.79
2019-02-23T10:33:10.419Z,1011.79
2019-02-23T10:34:14.418Z,1011.74
2019-02-23T10:35:31.917Z,1011.75
2019-02-23T10:36:10.927Z,1011.71
2019-02-23T10:37:10.933Z,1011.66
2019-02-23T10:38:10.985Z,1011.71
2019-02-23T10:39:11.416Z,1011.69
2019-02-23T10:40:15.417Z,1011.72
2019-02-23T10:41:11.419Z,1011.75
2019-02-23T10:42:11.429Z,1011.74
2019-02-23T10:43:11.424Z,1011.71
2019-02-23T10:44:11.979Z,1011.74
2019-02-23T10:45:11.916Z,1011.72
2019-02-23T10:46:15.416Z,1011.68
2019-02-23T10:47:11.927Z,1011.68
2019-02-23T10:49:43.648Z,1011.56
2019-02-23T10:50:43.672Z,1011.54
2019-02-23T10:51:47.655Z,1011.52
2019-02-23T10:52:44.153Z,1011.47
2019-02-23T10:53:44.158Z,1011.42
2019-02-23T10:54:44.154Z,1011.41
2019-02-23T10:55:44.154Z,1011.41
2019-02-23T10:56:44.655Z,1011.37
2019-02-23T10:57:47.654Z,1011.35
2019-02-23T10:58:44.654Z,1011.32
2019-02-23T10:59:44.655Z,1011.27
2019-02-23T11:01:07.052Z,1011.30
2019-02-23T11:01:45.162Z,1011.30
2019-02-23T11:03:10.157Z,1011.35
2019-02-23T11:03:45.153Z,1011.31
2019-02-23T11:04:47.654Z,1011.29
2019-02-23T11:05:45.691Z,1011.33
2019-02-23T11:06:45.654Z,1011.32
2019-02-23T11:07:45.666Z,1011.34
2019-02-23T11:10:42.427Z,1011.30
2019-02-23T11:11:21.434Z,1011.32
2019-02-23T11:12:21.435Z,1011.36
2019-02-23T11:13:21.939Z,1011.36
2019-02-23T11:14:25.434Z,1011.33
2019-02-23T11:15:21.934Z,1011.30
2019-02-23T11:16:21.934Z,1011.40
2019-02-23T11:17:22.434Z,1011.56
2019-02-23T11:18:22.431Z,1011.34
2019-02-23T11:19:22.432Z,1011.69
2019-02-23T11:20:26.432Z,1011.81
2019-02-23T11:21:22.938Z,1011.76
2019-02-23T11:22:43.932Z,1011.86
2019-02-23T11:23:22.934Z,1011.82
2019-02-23T11:24:22.940Z,1012.02
2019-02-23T11:25:23.433Z,1011.90
2019-02-23T11:26:26.438Z,1011.84
2019-02-23T11:27:23.434Z,1011.90
2019-02-23T11:28:23.434Z,1011.82
2019-02-23T11:29:23.940Z,1011.90
2019-02-23T11:30:23.934Z,1011.84
2019-02-23T11:31:48.938Z,1011.89
2019-02-23T11:32:23.934Z,1011.73
2019-02-23T11:33:24.451Z,1011.66
2019-02-23T11:34:24.513Z,1011.56
2019-02-23T11:35:24.439Z,1011.45
2019-02-23T11:36:24.434Z,1011.41
2019-02-23T11:37:30.934Z,1011.31
2019-02-23T11:38:24.934Z,1011.26
2019-02-23T11:39:47.408Z,1011.29
2019-02-23T11:40:24.938Z,1011.33
2019-02-23T11:41:25.502Z,1011.37
2019-02-23T11:42:25.434Z,1011.36
2019-02-23T11:45:00.284Z,1011.37
2019-02-23T11:46:00.189Z,1011.36
2019-02-23T11:47:00.537Z,1011.33
2019-02-23T11:48:00.694Z,1011.31
2019-02-23T11:49:04.189Z,1011.24
2019-02-23T11:50:00.690Z,1011.22
2019-02-23T11:51:00.689Z,1011.29
2019-02-23T11:52:01.278Z,1011.35
2019-02-23T11:53:22.195Z,1011.35
2019-02-23T11:54:04.689Z,1011.35
2019-02-23T11:55:01.188Z,1011.24
2019-02-23T11:56:01.692Z,1011.26
2019-02-23T11:57:02.631Z,1011.27
2019-02-23T11:58:03.688Z,1011.26
2019-02-23T11:59:26.723Z,1011.13
2019-02-23T12:00:25.125Z,1011.13
2019-02-23T12:01:02.191Z,1011.16
2019-02-23T12:02:02.192Z,1011.19
2019-02-23T12:03:02.190Z,1011.16
2019-02-23T12:04:02.690Z,1011.25
2019-02-23T12:05:06.708Z,1011.31
2019-02-23T12:07:34.198Z,1011.29
2019-02-23T12:08:35.651Z,1011.29
2019-02-23T12:09:34.196Z,1011.19
2019-02-23T12:10:38.223Z,1011.09
2019-02-23T12:11:55.695Z,1011.10
2019-02-23T12:12:34.697Z,1011.14
2019-02-23T12:13:34.696Z,1011.09
2019-02-23T12:14:37.195Z,1011.02
2019-02-23T12:15:35.201Z,1010.92
2019-02-23T12:16:39.195Z,1010.89
2019-02-23T12:17:35.199Z,1010.89
2019-02-23T12:18:35.703Z,1010.90
2019-02-23T12:19:35.694Z,1010.91
2019-02-23T12:20:35.700Z,1010.92
2019-02-23T12:21:35.698Z,1010.95
2019-02-23T12:22:39.196Z,1010.93
2019-02-23T12:23:36.204Z,1010.92
2019-02-23T12:24:36.199Z,1010.89
2019-02-23T12:25:36.202Z,1010.90
2019-02-23T12:26:36.697Z,1010.83
2019-02-23T12:27:40.196Z,1010.85
2019-02-23T12:28:36.706Z,1010.90
2019-02-23T12:29:36.698Z,1010.89
2019-02-23T12:30:37.197Z,1010.86
2019-02-23T12:31:37.195Z,1010.89
2019-02-23T12:32:40.697Z,1010.90
2019-02-23T12:33:37.198Z,1010.78
2019-02-23T12:34:37.699Z,1010.73
2019-02-23T12:35:37.697Z,1010.81
2019-02-23T12:36:37.697Z,1010.72
2019-02-23T12:37:41.700Z,1010.73
2019-02-23T12:38:38.208Z,1010.59
2019-02-23T12:41:09.571Z,1010.50
2019-02-23T12:42:09.581Z,1010.48
2019-02-23T12:43:13.582Z,1010.41
2019-02-23T12:44:10.085Z,1010.41
2019-02-23T12:46:41.589Z,1010.31
2019-02-23T12:47:41.603Z,1010.30
2019-02-23T12:48:45.091Z,1010.36
2019-02-23T12:49:42.091Z,1010.45
2019-02-23T12:50:44.525Z,1010.43
2019-02-23T12:51:42.108Z,1010.38